Time;durP1;ratioP1;P1;durP2;ratioP2;P2;SDS_P1;SDS_P2;PMS_P1;PMS_P2;Temp;Humidity;BMP_temperature;BMP_pressure;BME280_temperature;BME280_humidity;BME280_pressure;Samples;Min_cycle;Max_cycle;Signal;HPM_P1;HPM_P2
2021/10/30 00:00:28;;;;;;;81.03;33.87;;;4.20;99.90;;;;;;4187895;28;20665;-59
2021/10/30 00:02:29;;;;;;;76.10;31.47;;;4.20;99.90;;;;;;4189586;28;20350;-60
2021/10/30 00:04:30;;;;;;;60.87;29.10;;;4.20;99.90;;;;;;4187872;28;20370;-60
2021/10/30 00:06:33;;;;;;;67.47;29.20;;;4.20;99.90;;;;;;4189427;28;20323;-61
2021/10/30 00:08:34;;;;;;;72.70;29.83;;;4.20;99.90;;;;;;4189608;28;20269;-61
2021/10/30 00:10:35;;;;;;;58.00;28.07;;;4.30;99.90;;;;;;4189967;28;20261;-60
2021/10/30 00:12:37;;;;;;;56.70;27.63;;;4.20;99.90;;;;;;4189238;28;20315;-61
2021/10/30 00:14:39;;;;;;;56.70;26.97;;;4.20;99.90;;;;;;4188260;28;20286;-60
2021/10/30 00:16:40;;;;;;;59.37;27.13;;;4.20;99.90;;;;;;4188873;28;20300;-60
2021/10/30 00:18:41;;;;;;;60.97;27.27;;;4.20;99.90;;;;;;4189326;28;20293;-60
2021/10/30 00:20:42;;;;;;;53.90;26.87;;;4.20;99.90;;;;;;4188938;28;20261;-61
2021/10/30 00:22:44;;;;;;;48.97;25.43;;;4.10;99.90;;;;;;4189408;28;20261;-61
2021/10/30 00:24:45;;;;;;;51.70;26.03;;;4.10;99.90;;;;;;4188688;28;20278;-61
2021/10/30 00:26:47;;;;;;;51.27;25.60;;;4.10;99.90;;;;;;4189358;28;20342;-60
2021/10/30 00:28:48;;;;;;;62.57;26.50;;;4.10;99.90;;;;;;4189231;28;20273;-61
2021/10/30 00:30:49;;;;;;;58.73;27.00;;;4.10;99.90;;;;;;4189128;28;20339;-60
2021/10/30 00:32:51;;;;;;;57.70;26.87;;;4.10;99.90;;;;;;4188734;28;20546;-61
2021/10/30 00:34:52;;;;;;;50.30;23.83;;;4.00;99.90;;;;;;4189154;28;20382;-61
2021/10/30 00:36:53;;;;;;;51.60;22.87;;;3.90;99.90;;;;;;4188645;28;20370;-61
2021/10/30 00:38:54;;;;;;;53.63;24.27;;;3.80;99.90;;;;;;4189056;28;20745;-61
2021/10/30 00:40:55;;;;;;;44.70;23.13;;;3.70;99.90;;;;;;4189616;28;20319;-60
2021/10/30 00:42:56;;;;;;;47.03;22.23;;;3.60;99.90;;;;;;4188595;28;20269;-61
2021/10/30 00:44:58;;;;;;;54.27;24.03;;;3.50;99.90;;;;;;4189256;28;20334;-61
2021/10/30 00:47:00;;;;;;;53.57;25.67;;;3.50;99.90;;;;;;4188328;28;20834;-60
2021/10/30 00:49:01;;;;;;;51.90;25.07;;;3.40;99.90;;;;;;4188969;28;20801;-60
2021/10/30 00:51:05;;;;;;;58.00;27.57;;;3.30;99.90;;;;;;4188478;28;20281;-60
2021/10/30 00:53:06;;;;;;;61.43;27.87;;;3.30;99.90;;;;;;4188920;28;20339;-62
2021/10/30 00:55:09;;;;;;;53.03;25.70;;;3.30;99.90;;;;;;4187348;28;20297;-61
2021/10/30 00:57:11;;;;;;;60.33;26.40;;;3.30;99.90;;;;;;4188734;28;20281;-60
2021/10/30 00:59:14;;;;;;;55.30;27.03;;;3.30;99.90;;;;;;4188668;28;20277;-62
2021/10/30 01:01:16;;;;;;;59.53;28.50;;;3.30;99.90;;;;;;4188683;28;20269;-61
2021/10/30 01:03:17;;;;;;;64.60;30.70;;;3.30;99.90;;;;;;4188377;28;20688;-61
2021/10/30 01:05:18;;;;;;;66.07;30.23;;;3.40;99.90;;;;;;4188601;28;20327;-61
2021/10/30 01:07:21;;;;;;;67.67;29.93;;;3.40;99.90;;;;;;4188291;28;20381;-61
2021/10/30 01:09:22;;;;;;;69.37;32.07;;;3.50;99.90;;;;;;4188135;28;20277;-61
2021/10/30 01:11:24;;;;;;;69.07;30.73;;;3.60;99.90;;;;;;4188777;28;20351;-61
2021/10/30 01:13:27;;;;;;;71.20;32.43;;;3.60;99.90;;;;;;4188785;28;20279;-62
2021/10/30 01:15:28;;;;;;;65.67;30.50;;;3.70;99.90;;;;;;4188873;28;20342;-61
2021/10/30 01:17:29;;;;;;;73.57;30.67;;;3.60;99.90;;;;;;4188556;28;20323;-61
2021/10/30 01:19:30;;;;;;;59.47;27.37;;;3.60;99.90;;;;;;4189331;28;20327;-61
2021/10/30 01:21:34;;;;;;;55.87;26.70;;;3.70;99.90;;;;;;4188464;28;20265;-61
2021/10/30 01:23:36;;;;;;;60.37;27.73;;;3.70;99.90;;;;;;4189125;28;20322;-59
2021/10/30 01:25:37;;;;;;;61.30;29.70;;;3.70;99.90;;;;;;4188142;28;20291;-61
2021/10/30 01:27:44;;;;;;;59.77;31.27;;;3.60;99.90;;;;;;4189034;28;20278;-61
2021/10/30 01:29:50;;;;;;;53.60;27.90;;;3.60;99.90;;;;;;4188193;28;20818;-62
2021/10/30 01:31:54;;;;;;;61.00;29.47;;;3.60;99.90;;;;;;4189026;28;20282;-61
2021/10/30 01:33:57;;;;;;;66.70;31.97;;;3.60;99.90;;;;;;4188414;28;20265;-61
2021/10/30 01:36:07;;;;;;;72.80;33.43;;;3.60;99.90;;;;;;4189105;28;20297;-61
2021/10/30 01:38:10;;;;;;;61.13;31.13;;;3.60;99.90;;;;;;4188382;28;22111;-62
2021/10/30 01:40:11;;;;;;;64.57;28.73;;;3.60;99.90;;;;;;4189549;28;20285;-60
2021/10/30 01:42:12;;;;;;;64.57;31.83;;;3.50;99.90;;;;;;4188177;28;20741;-61
2021/10/30 01:44:13;;;;;;;61.70;31.70;;;3.60;99.90;;;;;;4188490;28;20269;-61
2021/10/30 01:46:19;;;;;;;70.83;33.00;;;3.60;99.90;;;;;;4188131;28;20322;-61
2021/10/30 01:48:31;;;;;;;68.13;31.53;;;3.60;99.90;;;;;;4188343;28;20355;-61
2021/10/30 01:50:33;;;;;;;59.77;28.77;;;3.70;99.90;;;;;;4188728;28;21191;-62
2021/10/30 01:52:34;;;;;;;62.00;30.20;;;3.70;99.90;;;;;;4188705;28;20862;-61
2021/10/30 01:54:35;;;;;;;66.90;30.10;;;3.70;99.90;;;;;;4188940;28;20257;-61
2021/10/30 01:56:36;;;;;;;66.47;28.27;;;3.70;99.90;;;;;;4188462;28;20301;-62
2021/10/30 01:58:38;;;;;;;75.03;31.17;;;3.60;99.90;;;;;;4188460;28;20672;-61
2021/10/30 02:00:40;;;;;;;77.23;32.30;;;3.40;99.90;;;;;;4187601;28;20410;-62
2021/10/30 02:02:42;;;;;;;71.93;33.60;;;3.20;99.90;;;;;;4187682;28;20327;-61
2021/10/30 02:04:43;;;;;;;80.40;33.73;;;3.10;99.90;;;;;;4188082;28;20317;-61
2021/10/30 02:06:44;;;;;;;74.67;33.47;;;3.00;99.90;;;;;;4188577;28;20752;-61
2021/10/30 02:08:45;;;;;;;76.37;34.20;;;2.90;99.90;;;;;;4188035;28;20261;-62
2021/10/30 02:10:47;;;;;;;72.37;34.00;;;2.90;99.90;;;;;;4188840;28;20780;-62
2021/10/30 02:12:48;;;;;;;61.67;31.47;;;2.90;99.90;;;;;;4188096;28;20290;-61
2021/10/30 02:14:49;;;;;;;72.87;33.93;;;2.90;99.90;;;;;;4188458;28;20277;-61
2021/10/30 02:16:50;;;;;;;72.73;34.47;;;2.80;99.90;;;;;;4187838;28;20285;-59
2021/10/30 02:18:51;;;;;;;74.77;34.67;;;2.90;99.90;;;;;;4188479;28;20330;-61
2021/10/30 02:20:53;;;;;;;70.57;33.30;;;2.90;99.90;;;;;;4188238;28;20746;-62
2021/10/30 02:22:54;;;;;;;75.93;35.00;;;2.90;99.90;;;;;;4188756;28;20319;-61
2021/10/30 02:24:55;;;;;;;76.97;35.20;;;2.90;99.90;;;;;;4190858;28;20261;-62
2021/10/30 02:26:56;;;;;;;73.20;35.63;;;2.90;99.90;;;;;;4190744;28;20265;-60
2021/10/30 02:28:57;;;;;;;76.43;37.37;;;2.90;99.90;;;;;;4190723;28;20327;-60
2021/10/30 02:30:58;;;;;;;73.67;34.10;;;2.90;99.90;;;;;;4190695;28;20258;-61
2021/10/30 02:33:00;;;;;;;80.87;38.17;;;2.90;99.90;;;;;;4190848;28;20749;-60
2021/10/30 02:35:01;;;;;;;78.23;34.73;;;2.90;99.90;;;;;;4190019;28;20281;-59
2021/10/30 02:37:03;;;;;;;74.33;36.70;;;3.00;99.90;;;;;;4190747;28;20270;-61
2021/10/30 02:39:04;;;;;;;77.43;35.53;;;3.00;99.90;;;;;;4190051;28;20335;-59
2021/10/30 02:41:05;;;;;;;76.40;34.23;;;3.00;99.90;;;;;;4191605;28;20360;-61
2021/10/30 02:43:06;;;;;;;73.50;36.37;;;3.10;99.90;;;;;;4190397;28;20257;-60
2021/10/30 02:45:08;;;;;;;77.50;34.50;;;3.10;99.90;;;;;;4191405;28;20331;-61
2021/10/30 02:47:09;;;;;;;78.50;36.63;;;3.10;99.90;;;;;;4190678;28;20257;-61
2021/10/30 02:49:11;;;;;;;75.73;36.90;;;3.10;99.90;;;;;;4191007;28;20269;-61
2021/10/30 02:51:13;;;;;;;84.17;34.73;;;3.10;99.90;;;;;;4190705;28;20295;-61
2021/10/30 02:53:14;;;;;;;73.27;34.93;;;3.10;99.90;;;;;;4190610;28;20265;-60
2021/10/30 02:55:16;;;;;;;75.47;33.57;;;3.10;99.90;;;;;;4190930;28;20261;-61
2021/10/30 02:57:17;;;;;;;66.57;32.60;;;3.10;99.90;;;;;;4189954;28;20882;-60
2021/10/30 02:59:18;;;;;;;64.37;30.33;;;3.10;99.90;;;;;;4190270;28;20331;-61
2021/10/30 03:01:19;;;;;;;75.37;31.77;;;3.10;99.90;;;;;;4190204;28;20273;-61
2021/10/30 03:03:20;;;;;;;68.13;28.50;;;3.10;99.90;;;;;;4190902;28;20269;-58
2021/10/30 03:05:21;;;;;;;58.03;28.27;;;3.20;99.90;;;;;;4190404;28;20281;-60
2021/10/30 03:07:23;;;;;;;60.50;28.73;;;3.20;99.90;;;;;;4190597;28;20261;-62
2021/10/30 03:09:24;;;;;;;60.90;26.97;;;3.20;99.90;;;;;;4189867;28;21149;-62
2021/10/30 03:11:25;;;;;;;61.20;27.07;;;3.20;99.90;;;;;;4191653;28;20334;-59
2021/10/30 03:13:27;;;;;;;57.57;27.73;;;3.20;99.90;;;;;;4189982;28;20930;-61
2021/10/30 03:15:28;;;;;;;56.87;23.63;;;3.20;99.90;;;;;;4190452;28;20358;-62
2021/10/30 03:17:29;;;;;;;46.07;23.03;;;3.20;99.90;;;;;;4190076;28;20269;-61
2021/10/30 03:19:31;;;;;;;52.97;23.77;;;3.20;99.90;;;;;;4190563;28;20265;-61
2021/10/30 03:21:33;;;;;;;55.43;24.90;;;3.20;99.90;;;;;;4190269;28;20270;-61
2021/10/30 03:23:34;;;;;;;48.00;23.83;;;3.20;99.90;;;;;;4176090;28;20278;-61
2021/10/30 03:25:35;;;;;;;48.80;24.40;;;3.10;99.90;;;;;;4173924;28;20278;-61
2021/10/30 03:27:37;;;;;;;53.40;24.57;;;3.10;99.90;;;;;;4173843;28;20388;-62
2021/10/30 03:29:38;;;;;;;50.27;24.20;;;3.10;99.90;;;;;;4173577;28;20324;-62
2021/10/30 03:31:39;;;;;;;50.73;24.33;;;3.10;99.90;;;;;;4173419;28;20336;-62
2021/10/30 03:33:40;;;;;;;45.20;22.63;;;3.10;99.90;;;;;;4174051;28;20266;-59
2021/10/30 03:35:41;;;;;;;53.03;25.77;;;3.10;99.90;;;;;;4172820;28;20416;-62
2021/10/30 03:37:42;;;;;;;45.30;23.40;;;3.10;99.90;;;;;;4173059;28;20266;-61
2021/10/30 03:39:43;;;;;;;49.13;23.63;;;3.10;99.90;;;;;;4182140;28;20265;-62
2021/10/30 03:41:44;;;;;;;46.93;23.13;;;3.10;99.90;;;;;;4190986;28;20281;-61
2021/10/30 03:43:45;;;;;;;50.40;24.57;;;3.10;99.90;;;;;;4188593;28;20703;-62
2021/10/30 03:45:47;;;;;;;57.23;27.23;;;3.10;99.90;;;;;;4190229;28;20292;-62
2021/10/30 03:47:48;;;;;;;62.90;29.50;;;3.00;99.90;;;;;;4189460;28;20265;-61
2021/10/30 03:49:49;;;;;;;64.87;27.10;;;3.00;99.90;;;;;;4189996;28;20269;-60
2021/10/30 03:51:50;;;;;;;65.10;29.00;;;2.90;99.90;;;;;;4189964;28;20278;-61
2021/10/30 03:53:52;;;;;;;64.23;28.67;;;2.90;99.90;;;;;;4189907;28;20277;-61
2021/10/30 03:55:53;;;;;;;53.03;26.50;;;2.90;99.90;;;;;;4189012;28;20289;-61
2021/10/30 03:57:54;;;;;;;60.90;29.30;;;2.90;99.90;;;;;;4189906;28;20659;-60
2021/10/30 03:59:55;;;;;;;57.63;28.30;;;2.90;99.90;;;;;;4189508;28;20269;-61
2021/10/30 04:01:56;;;;;;;63.53;27.10;;;2.80;99.90;;;;;;4189052;28;20403;-61
2021/10/30 04:03:57;;;;;;;59.63;27.13;;;2.80;99.90;;;;;;4189719;28;20273;-60
2021/10/30 04:05:58;;;;;;;58.47;26.90;;;2.80;99.90;;;;;;4189164;28;21143;-63
2021/10/30 04:07:59;;;;;;;56.83;27.30;;;2.80;99.90;;;;;;4189526;28;20353;-59
2021/10/30 04:10:01;;;;;;;56.87;27.23;;;2.70;99.90;;;;;;4189099;28;20323;-62
2021/10/30 04:12:02;;;;;;;54.37;25.43;;;2.70;99.90;;;;;;4190126;28;20315;-61
2021/10/30 04:14:04;;;;;;;53.60;26.90;;;2.70;99.90;;;;;;4187196;28;20596;-61
2021/10/30 04:16:05;;;;;;;54.23;26.93;;;2.70;99.90;;;;;;4189524;28;20296;-62
2021/10/30 04:18:06;;;;;;;52.77;25.87;;;2.70;99.90;;;;;;4188658;28;20273;-61
2021/10/30 04:20:08;;;;;;;48.47;23.13;;;2.70;99.90;;;;;;4188997;28;21265;-63
2021/10/30 04:22:09;;;;;;;40.83;20.47;;;2.60;99.90;;;;;;4188724;28;20677;-62
2021/10/30 04:24:10;;;;;;;43.97;20.03;;;2.60;99.90;;;;;;4187956;28;20335;-62
2021/10/30 04:26:11;;;;;;;41.97;21.70;;;2.60;99.90;;;;;;4188964;28;20262;-61
2021/10/30 04:28:12;;;;;;;55.03;24.83;;;2.60;99.90;;;;;;4188509;28;20257;-62
2021/10/30 04:30:14;;;;;;;53.50;26.00;;;2.60;99.90;;;;;;4188854;28;20281;-62
2021/10/30 04:32:16;;;;;;;58.10;25.23;;;2.60;99.90;;;;;;4188747;28;20649;-60
2021/10/30 04:34:18;;;;;;;48.27;25.20;;;2.50;99.90;;;;;;4188600;28;20705;-60
2021/10/30 04:36:23;;;;;;;56.53;26.40;;;2.60;99.90;;;;;;4187893;28;20301;-61
2021/10/30 04:38:24;;;;;;;66.83;31.47;;;2.50;99.90;;;;;;4188333;28;20281;-63
2021/10/30 04:40:25;;;;;;;75.30;35.93;;;2.50;99.90;;;;;;4187259;28;20281;-63
2021/10/30 04:42:26;;;;;;;66.33;33.17;;;2.40;99.90;;;;;;4189226;28;20350;-62
2021/10/30 04:44:27;;;;;;;57.60;28.93;;;2.40;99.90;;;;;;4188115;28;20269;-61
2021/10/30 04:46:28;;;;;;;66.30;28.17;;;2.40;99.90;;;;;;4188655;28;20273;-62
2021/10/30 04:48:31;;;;;;;59.10;27.97;;;2.40;99.90;;;;;;4188391;28;20262;-62
2021/10/30 04:50:33;;;;;;;56.83;29.53;;;2.30;99.90;;;;;;4189221;28;20322;-60
2021/10/30 04:52:34;;;;;;;65.33;29.63;;;2.30;99.90;;;;;;4187852;28;20274;-61
2021/10/30 04:54:35;;;;;;;56.70;26.80;;;2.30;99.90;;;;;;4188675;28;20269;-61
2021/10/30 04:56:37;;;;;;;50.27;25.50;;;2.20;99.90;;;;;;4188643;28;20816;-66
2021/10/30 04:58:44;;;;;;;57.00;26.13;;;2.20;99.90;;;;;;4187930;28;20354;-62
2021/10/30 05:00:45;;;;;;;55.30;26.50;;;2.20;99.90;;;;;;4188269;28;20281;-61
2021/10/30 05:02:46;;;;;;;52.50;25.23;;;2.10;99.90;;;;;;4188162;28;20311;-59
2021/10/30 05:04:48;;;;;;;55.20;27.53;;;2.20;99.90;;;;;;4187885;28;20273;-60
2021/10/30 05:06:49;;;;;;;50.70;26.37;;;2.10;99.90;;;;;;4187621;28;20281;-60
2021/10/30 05:08:50;;;;;;;52.43;25.40;;;2.10;99.90;;;;;;4188497;28;20273;-61
2021/10/30 05:10:51;;;;;;;53.07;26.97;;;2.10;99.90;;;;;;4187866;28;20281;-60
2021/10/30 05:12:53;;;;;;;59.90;27.53;;;2.10;99.90;;;;;;4188023;28;20277;-61
2021/10/30 05:14:54;;;;;;;55.67;27.93;;;2.10;99.90;;;;;;4188214;28;20832;-62
2021/10/30 05:16:55;;;;;;;55.20;28.37;;;2.10;99.90;;;;;;4189204;28;20293;-61
2021/10/30 05:18:56;;;;;;;62.07;29.77;;;2.30;99.90;;;;;;4186716;28;20327;-61
2021/10/30 05:20:57;;;;;;;62.47;29.63;;;2.40;99.90;;;;;;4187837;28;20273;-62
2021/10/30 05:22:58;;;;;;;59.80;29.70;;;2.50;99.90;;;;;;4187740;28;20319;-61
2021/10/30 05:24:59;;;;;;;58.17;30.80;;;2.70;99.90;;;;;;4186701;28;20274;-61
2021/10/30 05:27:02;;;;;;;61.97;29.97;;;2.90;99.90;;;;;;4187771;28;20315;-60
2021/10/30 05:29:03;;;;;;;57.77;30.10;;;3.10;99.90;;;;;;4188462;28;20296;-60
2021/10/30 05:31:05;;;;;;;57.73;30.90;;;3.20;99.90;;;;;;4187747;28;20691;-61
2021/10/30 05:33:06;;;;;;;51.67;27.60;;;3.40;99.90;;;;;;4186993;28;20277;-58
2021/10/30 05:35:07;;;;;;;57.30;29.50;;;3.60;99.90;;;;;;4187949;28;20265;-59
2021/10/30 05:37:08;;;;;;;57.97;27.70;;;3.90;99.90;;;;;;4187915;28;20293;-60
2021/10/30 05:39:16;;;;;;;55.63;28.10;;;4.20;99.90;;;;;;4187701;28;20275;-60
2021/10/30 05:41:18;;;;;;;52.20;28.00;;;4.40;99.90;;;;;;4187717;28;20852;-61
2021/10/30 05:43:19;;;;;;;45.27;25.93;;;4.70;99.90;;;;;;4188467;28;20265;-60
2021/10/30 05:45:20;;;;;;;51.90;26.73;;;5.00;99.90;;;;;;4187651;28;20254;-61
2021/10/30 05:47:22;;;;;;;50.03;26.13;;;5.40;99.90;;;;;;4188895;28;20347;-61
2021/10/30 05:49:23;;;;;;;52.00;24.50;;;5.60;99.90;;;;;;4187486;28;20749;-61
2021/10/30 05:51:24;;;;;;;52.10;24.90;;;5.90;99.90;;;;;;4188430;28;20032;-60
2021/10/30 05:53:25;;;;;;;51.00;25.70;;;6.00;99.90;;;;;;4187380;28;20036;-61
2021/10/30 05:55:27;;;;;;;55.10;26.83;;;6.20;99.90;;;;;;4188520;28;20090;-59
2021/10/30 05:57:28;;;;;;;47.90;25.90;;;6.40;99.90;;;;;;4187706;28;20045;-63
2021/10/30 05:59:30;;;;;;;49.83;24.90;;;6.40;99.90;;;;;;4191097;28;20434;-61
2021/10/30 06:01:32;;;;;;;46.73;23.30;;;6.60;99.90;;;;;;4191168;28;20110;-61
2021/10/30 06:03:33;;;;;;;43.07;24.53;;;6.80;99.90;;;;;;4190687;28;20514;-60
2021/10/30 06:05:34;;;;;;;48.23;25.13;;;6.90;99.90;;;;;;4190767;28;20070;-60
2021/10/30 06:07:36;;;;;;;42.57;24.23;;;7.00;99.90;;;;;;4190888;28;20090;-60
2021/10/30 06:09:37;;;;;;;54.80;27.00;;;7.00;99.90;;;;;;4190897;28;20032;-62
2021/10/30 06:11:38;;;;;;;48.50;25.80;;;7.10;99.90;;;;;;4191010;28;20090;-61
2021/10/30 06:13:40;;;;;;;43.33;23.27;;;7.30;99.90;;;;;;4191352;28;20102;-61
2021/10/30 06:15:41;;;;;;;47.47;26.00;;;7.40;99.90;;;;;;4191047;28;20036;-60
2021/10/30 06:17:42;;;;;;;54.17;27.97;;;7.50;99.90;;;;;;4191373;28;20550;-60
2021/10/30 06:19:43;;;;;;;57.47;27.87;;;7.70;99.90;;;;;;4188884;28;20037;-61
2021/10/30 06:21:44;;;;;;;55.60;27.60;;;7.70;99.90;;;;;;4191287;28;20044;-61
2021/10/30 06:23:48;;;;;;;53.37;29.47;;;7.80;99.90;;;;;;4190852;28;20037;-60
2021/10/30 06:25:49;;;;;;;65.53;32.27;;;8.00;99.90;;;;;;4191297;28;20028;-61
2021/10/30 06:27:50;;;;;;;59.33;30.87;;;8.10;99.90;;;;;;4189027;28;20044;-61
2021/10/30 06:29:52;;;;;;;56.60;31.70;;;8.30;99.90;;;;;;4190785;28;20041;-61
2021/10/30 06:31:53;;;;;;;56.23;29.17;;;8.40;99.90;;;;;;4189780;28;20037;-61
2021/10/30 06:33:54;;;;;;;64.60;33.67;;;8.60;99.90;;;;;;4190372;28;20167;-58
2021/10/30 06:35:55;;;;;;;65.90;34.87;;;8.70;99.90;;;;;;4190559;28;20130;-61
2021/10/30 06:37:57;;;;;;;61.03;32.90;;;8.80;99.90;;;;;;4188788;28;20106;-61
2021/10/30 06:39:59;;;;;;;62.23;32.83;;;8.80;99.90;;;;;;4190811;28;20020;-60
2021/10/30 06:42:00;;;;;;;65.97;35.60;;;8.60;99.90;;;;;;4188904;28;20147;-60
2021/10/30 06:44:01;;;;;;;66.00;32.87;;;8.60;99.90;;;;;;4190883;28;20028;-62
2021/10/30 06:46:02;;;;;;;67.13;34.47;;;8.70;99.90;;;;;;4190102;28;20126;-62
2021/10/30 06:48:04;;;;;;;61.17;34.20;;;8.30;99.90;;;;;;4190795;28;20086;-61
2021/10/30 06:50:07;;;;;;;66.47;34.23;;;8.20;99.90;;;;;;4189564;28;20032;-62
2021/10/30 06:52:09;;;;;;;65.27;33.93;;;8.40;99.90;;;;;;4190901;28;20028;-61
2021/10/30 06:54:10;;;;;;;62.33;32.90;;;8.40;99.90;;;;;;4188988;28;20032;-61
2021/10/30 06:56:12;;;;;;;61.40;32.87;;;8.60;99.90;;;;;;4190205;28;20074;-62
2021/10/30 06:58:13;;;;;;;71.70;37.40;;;8.20;99.90;;;;;;4190194;28;20037;-59
2021/10/30 07:00:14;;;;;;;67.80;35.30;;;8.30;99.90;;;;;;4190676;28;20021;-62
2021/10/30 07:02:15;;;;;;;63.83;33.47;;;8.00;99.90;;;;;;4190009;28;20032;-60
2021/10/30 07:04:17;;;;;;;70.20;35.77;;;8.00;99.90;;;;;;4190318;28;20074;-61
2021/10/30 07:06:18;;;;;;;76.67;40.70;;;7.90;99.90;;;;;;4189770;28;20036;-62
2021/10/30 07:08:19;;;;;;;81.03;42.87;;;7.80;99.90;;;;;;4189836;28;20041;-61
2021/10/30 07:10:20;;;;;;;99.33;45.70;;;7.80;99.90;;;;;;4188738;28;20036;-61
2021/10/30 07:12:21;;;;;;;89.80;44.27;;;7.90;99.90;;;;;;4191400;28;20032;-62
2021/10/30 07:14:22;;;;;;;81.47;40.47;;;8.30;99.90;;;;;;4189793;28;20796;-60
2021/10/30 07:16:24;;;;;;;68.93;36.10;;;8.60;99.90;;;;;;4188778;28;20122;-60
2021/10/30 07:18:25;;;;;;;79.53;37.97;;;8.60;99.90;;;;;;4189930;28;20637;-60
2021/10/30 07:20:27;;;;;;;65.53;34.90;;;8.50;99.90;;;;;;4189149;28;20028;-65
2021/10/30 07:22:28;;;;;;;71.00;35.50;;;8.20;99.90;;;;;;4191197;28;20121;-61
2021/10/30 07:24:29;;;;;;;76.77;37.23;;;8.30;99.90;;;;;;4189313;28;20032;-61
2021/10/30 07:26:30;;;;;;;80.43;37.03;;;8.70;99.90;;;;;;4190026;28;20503;-63
2021/10/30 07:28:31;;;;;;;73.90;36.37;;;9.10;99.90;;;;;;4188756;28;20082;-62
2021/10/30 07:30:32;;;;;;;71.77;37.73;;;9.60;99.90;;;;;;4189611;28;20568;-67
2021/10/30 07:32:34;;;;;;;73.43;34.97;;;9.60;99.90;;;;;;4189436;28;20036;-64
2021/10/30 07:34:35;;;;;;;73.17;36.83;;;9.80;99.90;;;;;;4189518;28;20082;-64
2021/10/30 07:36:36;;;;;;;64.23;33.63;;;9.80;99.90;;;;;;4189550;28;20040;-63
2021/10/30 07:38:38;;;;;;;70.00;33.87;;;9.60;99.90;;;;;;4188449;28;20713;-64
2021/10/30 07:40:39;;;;;;;71.43;35.70;;;9.40;99.90;;;;;;4189493;28;20393;-64
2021/10/30 07:42:42;;;;;;;119.37;56.57;;;9.10;99.90;;;;;;4189510;28;20036;-65
2021/10/30 07:44:43;;;;;;;130.47;61.07;;;9.10;99.90;;;;;;4189138;28;20478;-64
2021/10/30 07:46:44;;;;;;;135.30;64.10;;;9.10;99.90;;;;;;4189525;28;20082;-64
2021/10/30 07:48:45;;;;;;;92.27;46.40;;;9.10;99.90;;;;;;4190330;28;20075;-62
2021/10/30 07:50:47;;;;;;;88.70;47.53;;;9.00;99.90;;;;;;4189439;28;20024;-63
2021/10/30 07:52:48;;;;;;;73.30;39.70;;;9.10;99.90;;;;;;4191483;28;20025;-69
2021/10/30 07:54:49;;;;;;;98.87;51.03;;;9.30;99.90;;;;;;4188713;28;20048;-61
2021/10/30 07:56:50;;;;;;;120.60;62.60;;;9.40;99.90;;;;;;4190090;28;20049;-60
2021/10/30 07:58:52;;;;;;;124.40;63.70;;;9.40;99.90;;;;;;4188875;28;20101;-62
2021/10/30 08:00:53;;;;;;;97.30;51.40;;;9.60;99.90;;;;;;4188779;28;20102;-62
2021/10/30 08:02:55;;;;;;;100.43;49.23;;;9.80;99.90;;;;;;4189053;28;20090;-64
2021/10/30 08:04:56;;;;;;;118.87;56.63;;;9.90;99.90;;;;;;4189723;28;20499;-62
2021/10/30 08:06:57;;;;;;;92.00;43.33;;;10.10;99.90;;;;;;4188181;28;20051;-61
2021/10/30 08:08:58;;;;;;;90.90;42.03;;;10.20;99.90;;;;;;4189600;28;20549;-62
2021/10/30 08:11:01;;;;;;;61.43;29.20;;;10.40;99.90;;;;;;4189738;28;20082;-60
2021/10/30 08:13:02;;;;;;;65.27;30.47;;;10.50;99.90;;;;;;4188683;28;20428;-61
2021/10/30 08:15:04;;;;;;;45.10;22.30;;;10.70;99.90;;;;;;4189624;28;20029;-62
2021/10/30 08:17:07;;;;;;;38.90;20.03;;;10.80;99.90;;;;;;4188236;28;20597;-61
2021/10/30 08:19:08;;;;;;;43.13;21.13;;;10.80;99.90;;;;;;4188996;28;20481;-62
2021/10/30 08:21:09;;;;;;;43.40;21.27;;;10.90;99.90;;;;;;4187824;28;20090;-62
2021/10/30 08:23:10;;;;;;;48.33;19.50;;;11.00;99.90;;;;;;4188695;28;20401;-62
2021/10/30 08:25:12;;;;;;;45.93;21.20;;;11.10;99.90;;;;;;4188658;28;20028;-63
2021/10/30 08:27:14;;;;;;;43.83;19.77;;;11.20;99.90;;;;;;4188269;28;20048;-62
2021/10/30 08:29:15;;;;;;;43.70;19.47;;;11.10;99.90;;;;;;4188465;28;20044;-62
2021/10/30 08:31:16;;;;;;;33.47;17.83;;;11.00;99.90;;;;;;4189556;28;20082;-62
2021/10/30 08:33:18;;;;;;;31.00;18.20;;;11.00;99.90;;;;;;4184150;28;20853;-62
2021/10/30 08:35:20;;;;;;;33.67;17.93;;;11.00;99.90;;;;;;4188616;28;20443;-62
2021/10/30 08:37:21;;;;;;;35.07;19.47;;;11.20;99.90;;;;;;4188063;28;20041;-61
2021/10/30 08:39:22;;;;;;;38.80;21.27;;;11.20;99.90;;;;;;4188241;28;20109;-63
2021/10/30 08:41:24;;;;;;;24.13;13.10;;;11.40;99.90;;;;;;4188440;28;20048;-61
2021/10/30 08:43:26;;;;;;;20.43;11.00;;;11.60;99.90;;;;;;4186957;28;20052;-62
2021/10/30 08:45:31;;;;;;;22.17;11.27;;;11.90;99.90;;;;;;4188568;28;20379;-61
2021/10/30 08:47:33;;;;;;;21.10;10.33;;;12.00;99.90;;;;;;4187957;28;20032;-61
2021/10/30 08:49:36;;;;;;;25.43;11.67;;;12.20;99.90;;;;;;4188346;28;20137;-62
2021/10/30 08:51:40;;;;;;;17.17;10.87;;;12.30;99.90;;;;;;4187289;28;20397;-61
2021/10/30 08:53:42;;;;;;;19.03;10.33;;;12.40;99.90;;;;;;4188172;28;20081;-61
2021/10/30 08:55:43;;;;;;;19.50;11.13;;;12.60;99.90;;;;;;4188068;28;20079;-61
2021/10/30 08:57:44;;;;;;;18.60;11.00;;;12.70;99.90;;;;;;4187164;28;20512;-62
2021/10/30 08:59:46;;;;;;;25.80;12.43;;;12.70;99.90;;;;;;4187585;28;20037;-62
2021/10/30 09:01:52;;;;;;;27.33;13.97;;;12.60;99.90;;;;;;4188733;28;20113;-60
2021/10/30 09:04:01;;;;;;;38.97;17.17;;;12.60;99.90;;;;;;4187819;28;20028;-61
2021/10/30 09:06:03;;;;;;;24.40;11.40;;;12.70;99.90;;;;;;4188506;28;20044;-61
2021/10/30 09:08:07;;;;;;;19.03;10.63;;;12.90;99.90;;;;;;4186630;28;20054;-61
2021/10/30 09:10:11;;;;;;;19.00;10.40;;;12.90;99.70;;;;;;4188376;28;20070;-63
2021/10/30 09:12:23;;;;;;;19.57;10.70;;;12.90;99.70;;;;;;4187946;28;20484;-62
2021/10/30 09:14:27;;;;;;;16.27;9.67;;;12.90;99.50;;;;;;4188580;28;20060;-62
2021/10/30 09:16:28;;;;;;;18.77;10.77;;;12.90;99.30;;;;;;4187793;28;20122;-62
2021/10/30 09:18:36;;;;;;;16.73;9.70;;;12.90;99.30;;;;;;4186911;28;20090;-62
2021/10/30 09:20:37;;;;;;;19.63;10.63;;;12.80;99.30;;;;;;4188172;28;20055;-64
2021/10/30 09:22:38;;;;;;;19.17;9.97;;;12.90;99.30;;;;;;4188529;28;20086;-53
2021/10/30 09:24:57;;;;;;;21.77;9.60;;;13.00;99.20;;;;;;4188070;28;20037;-66
2021/10/30 09:26:59;;;;;;;19.80;9.27;;;13.10;98.80;;;;;;4187895;28;20090;-63
2021/10/30 09:29:06;;;;;;;17.83;10.50;;;13.10;98.80;;;;;;4187848;28;20028;-62
2021/10/30 09:31:09;;;;;;;14.83;9.83;;;13.20;98.60;;;;;;4188190;28;20032;-63
2021/10/30 09:33:12;;;;;;;18.03;9.37;;;13.30;98.40;;;;;;4187838;28;20613;-59
2021/10/30 09:35:24;;;;;;;16.97;11.00;;;13.40;98.40;;;;;;4191071;28;20040;-60
2021/10/30 09:37:27;;;;;;;18.53;9.30;;;13.50;98.10;;;;;;4187093;28;20165;-62
2021/10/30 09:39:28;;;;;;;20.73;10.47;;;13.60;98.00;;;;;;4195729;28;20051;-61
2021/10/30 09:41:41;;;;;;;20.47;10.63;;;13.70;97.90;;;;;;4193411;28;20105;-61
2021/10/30 09:43:55;;;;;;;20.53;10.33;;;13.70;97.50;;;;;;4190661;28;20089;-63
2021/10/30 09:46:05;;;;;;;21.67;11.40;;;13.80;97.40;;;;;;4189770;28;20102;-61
2021/10/30 09:48:08;;;;;;;16.47;9.73;;;14.00;97.60;;;;;;4191049;28;20052;-63
2021/10/30 09:50:42;;;;;;;18.47;9.67;;;14.00;97.00;;;;;;4190262;28;20048;-61
2021/10/30 09:52:43;;;;;;;21.37;12.20;;;14.00;96.70;;;;;;4156729;28;20048;-62
2021/10/30 09:54:46;;;;;;;26.83;11.20;;;14.00;96.70;;;;;;4190582;28;20106;-62
2021/10/30 09:56:49;;;;;;;16.37;9.63;;;14.10;96.70;;;;;;4191066;28;20392;-62
2021/10/30 09:58:50;;;;;;;17.00;10.33;;;14.10;96.30;;;;;;4180224;28;20109;-63
2021/10/30 10:00:51;;;;;;;17.60;10.17;;;14.10;96.40;;;;;;4174798;28;20037;-63
2021/10/30 10:03:00;;;;;;;17.40;9.33;;;14.10;96.20;;;;;;4175166;28;20045;-62
2021/10/30 10:05:03;;;;;;;16.50;9.30;;;14.10;96.30;;;;;;4173252;28;20040;-61
2021/10/30 11:00:26;;;;;;;23.65;11.70;;;14.50;94.10;;;;;;4205030;28;20988;-60
2021/10/30 11:02:32;;;;;;;29.42;13.85;;;15.10;93.80;;;;;;4203484;28;20102;-61
2021/10/30 11:04:34;;;;;;;16.17;9.07;;;15.00;93.60;;;;;;4204247;28;20086;-59
2021/10/30 11:06:41;;;;;;;16.73;9.83;;;15.00;93.40;;;;;;4203541;28;20038;-60
2021/10/30 11:08:42;;;;;;;21.33;11.33;;;15.00;93.50;;;;;;4204588;28;20028;-62
2021/10/30 11:10:44;;;;;;;33.25;15.00;;;15.00;93.60;;;;;;4202918;28;20074;-64
2021/10/30 11:13:05;;;;;;;26.00;12.23;;;14.90;93.60;;;;;;4203886;28;20075;-63
2021/10/30 11:15:09;;;;;;;26.75;12.73;;;15.00;93.70;;;;;;4202873;28;20149;-63
2021/10/30 11:17:12;;;;;;;40.80;17.33;;;15.10;93.60;;;;;;4204771;28;20025;-61
2021/10/30 11:19:22;;;;;;;53.60;21.97;;;15.10;93.70;;;;;;4202897;28;20036;-66